Time;durP1;ratioP1;P1;durP2;ratioP2;P2;SDS_P1;SDS_P2;PMS_P1;PMS_P2;Temp;Humidity;BMP_temperature;BMP_pressure;BME280_temperature;BME280_humidity;BME280_pressure;Samples;Min_cycle;Max_cycle;Signal;HPM_P1;HPM_P2
2022/01/11 00:00:29;;;;;;;36.60;25.05;;;3.20;99.90;;;;;;5117235;28;20225;-52
2022/01/11 00:02:56;;;;;;;37.03;25.17;;;3.20;99.90;;;;;;5117483;28;20634;-52
2022/01/11 00:05:27;;;;;;;35.17;25.50;;;3.20;99.90;;;;;;5116958;28;20549;-54
2022/01/11 00:07:54;;;;;;;35.75;25.67;;;3.30;99.90;;;;;;5115958;28;20180;-51
2022/01/11 00:10:26;;;;;;;37.83;25.15;;;3.30;99.90;;;;;;5116859;28;20183;-54
2022/01/11 00:12:52;;;;;;;36.80;24.67;;;3.30;99.90;;;;;;5116896;28;20158;-52
2022/01/11 00:15:18;;;;;;;34.07;24.60;;;3.20;99.90;;;;;;5116080;28;20187;-52
2022/01/11 00:17:44;;;;;;;36.57;24.97;;;3.20;99.90;;;;;;5115412;28;20195;-54
2022/01/11 00:20:13;;;;;;;35.95;25.08;;;3.30;99.90;;;;;;5116928;28;20176;-54
2022/01/11 00:24:26;;;;;;;34.97;25.23;;;3.20;99.90;;;;;;5116400;28;20634;-53
2022/01/11 00:25:45;;;;;;;36.03;25.10;;;3.20;99.90;;;;;;5116276;28;20243;-54
2022/01/11 00:28:13;;;;;;;37.40;25.47;;;3.20;99.90;;;;;;5116678;27;20267;-54
2022/01/11 00:30:41;;;;;;;32.17;23.50;;;3.20;99.90;;;;;;5115761;28;20230;-53
2022/01/11 00:33:12;;;;;;;31.77;23.63;;;3.20;99.90;;;;;;5116509;28;20191;-54
2022/01/11 00:35:57;;;;;;;39.57;24.23;;;3.20;99.90;;;;;;5116944;28;20173;-55
2022/01/11 00:38:24;;;;;;;30.97;23.07;;;3.10;99.90;;;;;;5115470;28;20167;-54
2022/01/11 00:40:52;;;;;;;33.70;23.67;;;3.10;99.90;;;;;;5116322;28;20179;-53
2022/01/11 00:43:20;;;;;;;35.93;24.57;;;3.20;99.90;;;;;;5116309;28;20177;-52
2022/01/11 00:45:47;;;;;;;34.33;24.13;;;3.10;99.90;;;;;;5116062;28;20208;-54
2022/01/11 00:48:13;;;;;;;33.53;23.97;;;3.10;99.90;;;;;;5116345;28;20221;-53
2022/01/11 00:50:39;;;;;;;34.13;23.23;;;3.10;99.90;;;;;;5116614;28;20173;-53
2022/01/11 00:53:06;;;;;;;32.93;24.60;;;3.10;99.90;;;;;;5116425;28;20515;-51
2022/01/11 00:55:33;;;;;;;32.97;23.60;;;3.10;99.90;;;;;;5115896;28;20506;-50
2022/01/11 00:57:59;;;;;;;34.97;25.30;;;3.10;99.90;;;;;;5115119;28;20266;-54
2022/01/11 01:00:25;;;;;;;35.60;24.43;;;3.10;99.90;;;;;;5115971;28;20634;-50
2022/01/11 01:02:50;;;;;;;31.10;23.93;;;3.10;99.90;;;;;;5114597;28;20575;-51
2022/01/11 01:05:18;;;;;;;32.87;23.00;;;3.10;99.90;;;;;;5115985;28;20204;-51
2022/01/11 01:07:47;;;;;;;32.23;24.23;;;3.00;99.90;;;;;;5114615;28;20191;-51
2022/01/11 01:10:25;;;;;;;35.00;23.60;;;3.00;99.90;;;;;;5114678;28;20168;-51
2022/01/11 01:12:55;;;;;;;35.23;23.87;;;3.00;99.90;;;;;;5115860;28;20161;-51
2022/01/11 01:15:22;;;;;;;33.47;23.83;;;3.00;99.90;;;;;;5115642;28;20176;-51
2022/01/11 01:17:48;;;;;;;30.90;23.80;;;2.90;99.90;;;;;;5115693;28;20192;-51
2022/01/11 01:20:14;;;;;;;35.13;23.80;;;2.90;99.90;;;;;;5120697;28;20176;-55
2022/01/11 01:22:39;;;;;;;31.87;23.17;;;2.80;99.90;;;;;;5123535;28;20188;-57
2022/01/11 01:25:06;;;;;;;29.37;22.77;;;2.70;99.90;;;;;;5115228;28;20586;-52
2022/01/11 01:27:31;;;;;;;31.60;21.57;;;2.70;99.90;;;;;;5115752;28;20188;-54
2022/01/11 01:29:57;;;;;;;30.83;20.47;;;2.70;99.90;;;;;;5114125;28;20275;-52
2022/01/11 01:32:24;;;;;;;26.67;21.17;;;2.70;99.90;;;;;;5115269;28;20173;-53
2022/01/11 01:34:50;;;;;;;30.57;21.37;;;2.60;99.90;;;;;;5115263;28;20168;-53
2022/01/11 01:37:16;;;;;;;27.70;20.23;;;2.70;99.90;;;;;;5114922;28;20543;-56
2022/01/11 01:39:43;;;;;;;30.42;21.13;;;2.70;99.90;;;;;;5113799;28;20172;-54
2022/01/11 01:42:11;;;;;;;30.93;21.40;;;2.70;99.90;;;;;;5115091;28;20622;-52
2022/01/11 01:44:37;;;;;;;28.57;20.27;;;2.70;99.90;;;;;;5115869;28;20641;-53
2022/01/11 01:47:03;;;;;;;27.75;19.85;;;2.70;99.90;;;;;;5114977;28;20281;-54
2022/01/11 01:49:31;;;;;;;27.37;19.93;;;2.70;99.90;;;;;;5097339;28;20181;-53
2022/01/11 01:51:57;;;;;;;26.20;19.80;;;2.70;99.90;;;;;;5114936;28;20196;-53
2022/01/11 01:54:24;;;;;;;27.88;20.55;;;2.70;99.90;;;;;;5115160;28;20208;-54
2022/01/11 01:56:50;;;;;;;25.23;19.45;;;2.70;99.90;;;;;;5113623;28;20271;-52
2022/01/11 01:59:16;;;;;;;26.23;19.13;;;2.50;99.90;;;;;;5113590;28;20271;-53
2022/01/11 02:01:46;;;;;;;25.67;19.08;;;2.50;99.90;;;;;;5113243;28;20631;-52
2022/01/11 02:04:12;;;;;;;30.00;19.23;;;2.50;99.90;;;;;;5114736;28;20250;-54
2022/01/11 02:06:38;;;;;;;28.00;20.33;;;2.50;99.90;;;;;;5114621;28;20290;-53
2022/01/11 02:09:04;;;;;;;28.97;20.50;;;2.60;99.90;;;;;;5114854;28;20212;-54
2022/01/11 02:11:31;;;;;;;29.33;20.17;;;2.60;99.90;;;;;;5113592;28;20255;-54
2022/01/11 02:13:57;;;;;;;28.47;20.23;;;2.50;99.90;;;;;;5114592;28;20219;-54
2022/01/11 02:16:24;;;;;;;30.63;20.70;;;2.60;99.90;;;;;;5114726;28;20223;-54
2022/01/11 02:18:51;;;;;;;28.20;19.67;;;2.60;99.90;;;;;;5114691;28;20207;-51
2022/01/11 02:21:17;;;;;;;27.83;18.80;;;2.50;99.90;;;;;;5114340;28;20637;-54
2022/01/11 02:23:43;;;;;;;31.33;19.73;;;2.60;99.90;;;;;;5114456;28;20587;-54
2022/01/11 02:26:09;;;;;;;29.60;19.27;;;2.60;99.90;;;;;;5113061;28;20296;-54
2022/01/11 02:28:35;;;;;;;30.90;19.17;;;2.60;99.90;;;;;;5114417;28;20204;-54
2022/01/11 02:31:07;;;;;;;24.83;18.43;;;2.60;99.90;;;;;;5114235;28;20184;-51
2022/01/11 02:33:44;;;;;;;25.63;18.57;;;2.70;99.90;;;;;;5114394;28;20521;-51
2022/01/11 02:36:18;;;;;;;25.07;18.23;;;2.60;99.90;;;;;;5114278;28;20168;-53
2022/01/11 02:38:46;;;;;;;27.27;19.33;;;2.50;99.90;;;;;;5114266;28;20152;-52
2022/01/11 02:41:12;;;;;;;27.47;18.70;;;2.50;99.90;;;;;;5114238;28;20172;-54
2022/01/11 02:43:47;;;;;;;24.30;17.33;;;2.50;99.90;;;;;;5114116;28;20188;-54
2022/01/11 02:46:14;;;;;;;27.03;18.47;;;2.60;99.90;;;;;;5114157;28;20279;-52
2022/01/11 02:48:39;;;;;;;24.47;18.33;;;2.50;99.90;;;;;;5113931;28;20173;-53
2022/01/11 02:51:05;;;;;;;26.37;17.60;;;2.50;99.90;;;;;;5114001;28;20534;-52
2022/01/11 02:53:37;;;;;;;25.10;17.50;;;2.50;99.90;;;;;;5114031;28;20176;-54
2022/01/11 02:56:03;;;;;;;24.70;17.03;;;2.50;99.90;;;;;;5113836;28;20162;-54
2022/01/11 02:58:29;;;;;;;23.93;17.50;;;2.50;99.90;;;;;;5113792;28;20183;-51
2022/01/11 03:00:54;;;;;;;24.13;17.17;;;2.50;99.90;;;;;;5113865;28;20172;-50
2022/01/11 03:03:22;;;;;;;23.63;16.23;;;2.40;99.90;;;;;;5114060;28;20176;-51
2022/01/11 03:05:53;;;;;;;22.10;16.47;;;2.40;99.90;;;;;;5117111;28;20541;-51
2022/01/11 03:08:21;;;;;;;22.20;15.97;;;2.40;99.90;;;;;;5121122;28;20218;-54
2022/01/11 03:10:48;;;;;;;23.50;16.43;;;2.40;99.90;;;;;;5119923;28;20176;-52
2022/01/11 03:13:16;;;;;;;24.17;16.33;;;2.40;99.90;;;;;;5113879;28;20269;-54
2022/01/11 03:15:43;;;;;;;23.75;15.77;;;2.40;99.90;;;;;;5113715;28;20188;-51
2022/01/11 03:18:09;;;;;;;21.27;15.60;;;2.40;99.90;;;;;;5113939;28;20193;-53
2022/01/11 03:20:37;;;;;;;21.40;15.90;;;2.40;99.90;;;;;;5113623;28;20176;-55
2022/01/11 03:23:04;;;;;;;20.20;15.23;;;2.40;99.90;;;;;;5112532;28;20181;-54
2022/01/11 03:25:30;;;;;;;24.73;16.10;;;2.40;99.90;;;;;;5113630;28;20215;-53
2022/01/11 03:27:56;;;;;;;22.10;15.20;;;2.40;99.90;;;;;;5113789;28;20267;-55
2022/01/11 03:30:22;;;;;;;20.33;15.23;;;2.40;99.90;;;;;;5114441;28;20177;-53
2022/01/11 03:32:48;;;;;;;20.63;15.38;;;2.30;99.90;;;;;;5115265;28;20268;-54
2022/01/11 03:35:14;;;;;;;21.40;15.17;;;2.30;99.90;;;;;;5117339;28;20212;-53
2022/01/11 03:37:42;;;;;;;23.57;15.73;;;2.30;99.90;;;;;;5117592;28;20181;-54
2022/01/11 03:40:11;;;;;;;20.67;14.60;;;2.30;99.90;;;;;;5117270;28;20181;-51
2022/01/11 03:42:37;;;;;;;19.97;14.23;;;2.30;99.90;;;;;;5117599;28;20180;-54
2022/01/11 03:45:05;;;;;;;19.77;14.57;;;2.30;99.90;;;;;;5117352;28;20178;-53
2022/01/11 03:47:31;;;;;;;21.67;15.30;;;2.30;99.90;;;;;;5117799;28;20191;-53
2022/01/11 03:49:57;;;;;;;19.63;14.13;;;2.40;99.90;;;;;;5117538;28;20250;-53
2022/01/11 03:52:23;;;;;;;24.00;15.63;;;2.30;99.90;;;;;;5117394;28;20207;-51
2022/01/11 03:57:22;;;;;;;20.60;14.97;;;2.30;99.90;;;;;;5117274;28;20169;-52
2022/01/11 03:59:47;;;;;;;21.20;15.27;;;2.30;99.90;;;;;;5116080;28;20169;-54
2022/01/11 04:02:14;;;;;;;22.13;16.03;;;2.30;99.90;;;;;;5117126;28;20183;-53
2022/01/11 04:04:40;;;;;;;21.50;15.07;;;2.40;99.90;;;;;;5115952;28;20204;-51
2022/01/11 04:07:06;;;;;;;24.27;15.60;;;2.40;99.90;;;;;;5116918;28;20293;-51
2022/01/11 04:09:32;;;;;;;20.57;16.20;;;2.40;99.90;;;;;;5115709;28;20278;-51
2022/01/11 04:11:58;;;;;;;20.97;15.13;;;2.40;99.90;;;;;;5117001;27;20173;-51
2022/01/11 04:14:25;;;;;;;20.17;15.03;;;2.40;99.90;;;;;;5116951;28;20178;-51
2022/01/11 04:16:52;;;;;;;21.47;14.77;;;2.30;99.90;;;;;;5116819;28;20204;-51
2022/01/11 04:19:18;;;;;;;19.97;14.83;;;2.30;99.90;;;;;;5116520;27;20617;-52
2022/01/11 04:21:44;;;;;;;22.07;15.30;;;2.40;99.90;;;;;;5117023;28;20172;-51
2022/01/11 04:24:12;;;;;;;20.17;14.80;;;2.40;99.90;;;;;;5116993;28;20184;-54
2022/01/11 04:26:38;;;;;;;19.73;14.53;;;2.40;99.90;;;;;;5115515;28;20199;-51
2022/01/11 04:29:04;;;;;;;22.73;14.27;;;2.30;99.90;;;;;;5117360;28;20211;-51
2022/01/11 04:31:30;;;;;;;21.23;14.50;;;2.30;99.90;;;;;;5115743;28;20605;-51
2022/01/11 04:33:55;;;;;;;18.63;13.27;;;2.30;99.90;;;;;;5116976;28;20182;-52
2022/01/11 04:36:21;;;;;;;18.17;13.93;;;2.30;99.90;;;;;;5116213;28;20641;-51
2022/01/11 04:38:47;;;;;;;18.33;13.87;;;2.30;99.90;;;;;;5116754;28;20207;-54
2022/01/11 04:41:13;;;;;;;18.63;13.27;;;2.30;99.90;;;;;;5116339;28;20223;-53
2022/01/11 04:43:39;;;;;;;20.93;14.47;;;2.30;99.90;;;;;;5114827;28;20613;-51
2022/01/11 04:46:04;;;;;;;19.07;14.30;;;2.30;99.90;;;;;;5115940;28;20217;-51
2022/01/11 04:48:32;;;;;;;19.97;14.10;;;2.30;99.90;;;;;;5114905;28;20176;-52
2022/01/11 04:51:02;;;;;;;18.57;13.00;;;2.30;99.90;;;;;;5114958;28;20205;-51
2022/01/11 04:53:29;;;;;;;19.80;12.73;;;2.30;99.90;;;;;;5116419;28;20660;-55
2022/01/11 04:55:55;;;;;;;17.57;12.57;;;2.20;99.90;;;;;;5118661;28;20196;-55
2022/01/11 04:58:21;;;;;;;18.70;13.53;;;2.20;99.90;;;;;;5117965;28;20172;-53
2022/01/11 05:00:46;;;;;;;18.20;12.07;;;2.20;99.90;;;;;;5116094;28;20172;-54
2022/01/11 05:03:12;;;;;;;16.97;13.13;;;2.20;99.90;;;;;;5116009;28;20534;-54
2022/01/11 05:05:38;;;;;;;17.87;13.20;;;2.10;99.90;;;;;;5116079;28;20215;-54
2022/01/11 05:08:05;;;;;;;16.17;12.23;;;2.20;99.90;;;;;;5116179;28;20188;-52
2022/01/11 05:10:31;;;;;;;17.77;12.33;;;2.00;99.90;;;;;;5115844;28;20502;-54
2022/01/11 05:12:58;;;;;;;19.57;12.47;;;2.10;99.90;;;;;;5115810;28;20223;-52
2022/01/11 05:15:25;;;;;;;18.03;13.27;;;2.00;99.90;;;;;;5115778;28;20181;-55
2022/01/11 05:17:51;;;;;;;18.83;13.17;;;2.00;99.90;;;;;;5115877;28;20191;-51
2022/01/11 05:20:17;;;;;;;16.73;12.77;;;2.00;99.90;;;;;;5114020;28;20170;-50
2022/01/11 05:22:45;;;;;;;19.93;12.53;;;2.00;99.90;;;;;;5115319;28;20310;-51
2022/01/11 05:25:13;;;;;;;18.43;13.40;;;2.00;99.90;;;;;;5115312;28;20731;-51
2022/01/11 05:27:40;;;;;;;17.27;13.33;;;2.00;99.90;;;;;;5115510;28;20185;-51
2022/01/11 05:30:07;;;;;;;19.13;13.50;;;2.00;99.90;;;;;;5115170;28;20629;-51
2022/01/11 05:32:35;;;;;;;17.67;12.67;;;2.00;99.90;;;;;;5115381;28;20259;-55
2022/01/11 05:35:03;;;;;;;18.40;13.10;;;2.00;99.90;;;;;;5115301;28;20173;-54
2022/01/11 05:37:29;;;;;;;17.80;13.57;;;1.90;99.90;;;;;;5114902;28;20703;-51
2022/01/11 05:39:54;;;;;;;17.03;12.47;;;2.00;99.90;;;;;;5115214;28;20176;-52
2022/01/11 05:42:20;;;;;;;15.53;12.20;;;2.00;99.90;;;;;;5115273;28;20170;-53
2022/01/11 05:44:46;;;;;;;23.73;13.27;;;2.00;99.90;;;;;;5115127;28;20177;-53
2022/01/11 05:47:12;;;;;;;19.37;12.80;;;2.00;99.90;;;;;;5114968;28;20307;-51
2022/01/11 05:49:38;;;;;;;21.77;12.80;;;2.10;99.90;;;;;;5113704;28;20170;-53
2022/01/11 05:52:04;;;;;;;17.27;12.60;;;2.10;99.90;;;;;;5114969;28;20174;-52
2022/01/11 05:54:29;;;;;;;23.17;14.30;;;2.10;99.90;;;;;;5114604;28;20507;-53
2022/01/11 05:56:55;;;;;;;21.70;13.60;;;2.10;99.90;;;;;;5114358;28;20197;-53
2022/01/11 05:59:21;;;;;;;23.05;16.98;;;2.20;99.90;;;;;;5114183;28;20409;-55
2022/01/11 06:01:46;;;;;;;21.80;15.33;;;2.30;99.90;;;;;;5114731;28;20174;-58
2022/01/11 06:04:12;;;;;;;18.50;13.87;;;2.20;99.90;;;;;;5114302;28;20180;-55
2022/01/11 06:06:37;;;;;;;19.87;13.90;;;2.20;99.90;;;;;;5112840;28;20232;-56
2022/01/11 06:09:03;;;;;;;21.57;13.73;;;2.30;99.90;;;;;;5111413;28;20219;-53
2022/01/11 06:11:30;;;;;;;18.43;14.87;;;2.20;99.90;;;;;;5114631;28;20193;-55
2022/01/11 06:13:55;;;;;;;17.37;13.53;;;2.20;99.90;;;;;;5114614;28;20169;-55
2022/01/11 06:16:21;;;;;;;18.63;14.07;;;2.20;99.90;;;;;;5114254;28;20216;-55
2022/01/11 06:18:48;;;;;;;15.73;12.73;;;2.30;99.90;;;;;;5113358;28;20261;-55
2022/01/11 06:21:14;;;;;;;19.17;13.40;;;2.30;99.90;;;;;;5114449;28;20173;-55
2022/01/11 06:23:40;;;;;;;18.20;12.87;;;2.20;99.90;;;;;;5113246;28;20246;-55
2022/01/11 06:26:05;;;;;;;19.13;13.00;;;2.30;99.90;;;;;;5114516;28;20207;-55
2022/01/11 06:28:31;;;;;;;18.67;12.57;;;2.20;99.90;;;;;;5114068;28;20231;-53
2022/01/11 06:30:57;;;;;;;18.63;12.87;;;2.20;99.90;;;;;;5114076;28;20637;-55
2022/01/11 06:33:24;;;;;;;20.80;12.80;;;2.20;99.90;;;;;;5114213;28;20173;-56
2022/01/11 06:35:49;;;;;;;17.57;12.97;;;2.20;99.90;;;;;;5114242;28;20633;-55
2022/01/11 06:38:15;;;;;;;16.47;12.83;;;2.30;99.90;;;;;;5114201;28;20229;-56
2022/01/11 06:40:41;;;;;;;18.20;13.17;;;2.20;99.90;;;;;;5114276;28;20172;-56
2022/01/11 06:43:07;;;;;;;18.07;12.70;;;2.30;99.90;;;;;;5117506;28;20533;-55
2022/01/11 06:45:34;;;;;;;18.67;13.60;;;2.30;99.90;;;;;;5114268;28;20718;-54
2022/01/11 06:48:00;;;;;;;18.10;13.03;;;2.30;99.90;;;;;;5113685;28;20226;-55
2022/01/11 06:50:27;;;;;;;17.17;12.83;;;2.30;99.90;;;;;;5113982;28;20263;-55
2022/01/11 06:52:53;;;;;;;17.07;12.73;;;2.30;99.90;;;;;;5112824;28;20184;-55
2022/01/11 06:55:19;;;;;;;17.73;13.17;;;2.30;99.90;;;;;;5113936;28;20546;-55
2022/01/11 06:57:46;;;;;;;20.17;13.30;;;2.30;99.90;;;;;;5113958;28;20272;-55
2022/01/11 07:00:12;;;;;;;17.77;12.80;;;2.30;99.90;;;;;;5113888;28;20182;-55
2022/01/11 07:02:38;;;;;;;20.97;13.30;;;2.30;99.90;;;;;;5113793;28;20177;-55
2022/01/11 07:05:05;;;;;;;18.53;13.00;;;2.30;99.90;;;;;;5113840;28;20178;-55
2022/01/11 07:07:30;;;;;;;20.90;13.57;;;2.30;99.90;;;;;;5115285;28;20191;-55
2022/01/11 07:09:56;;;;;;;19.80;13.17;;;2.30;99.90;;;;;;5118112;28;20180;-54
2022/01/11 07:12:22;;;;;;;19.37;13.53;;;2.30;99.90;;;;;;5118101;28;20176;-56
2022/01/11 07:14:48;;;;;;;22.33;14.63;;;2.40;99.90;;;;;;5117945;28;20236;-55
2022/01/11 07:17:15;;;;;;;21.57;13.30;;;2.30;99.90;;;;;;5117891;28;20241;-55
2022/01/11 07:19:41;;;;;;;19.60;13.33;;;2.30;99.90;;;;;;5100282;28;20543;-55
2022/01/11 07:22:06;;;;;;;19.07;13.70;;;2.30;99.90;;;;;;5117846;28;20283;-54
2022/01/11 07:24:32;;;;;;;19.33;13.33;;;2.30;99.90;;;;;;5117821;28;20638;-55
2022/01/11 07:26:58;;;;;;;20.83;13.63;;;2.30;99.90;;;;;;5117369;28;20200;-55
2022/01/11 07:29:24;;;;;;;20.90;14.10;;;2.20;99.90;;;;;;5117750;28;20180;-54
2022/01/11 07:31:49;;;;;;;20.03;13.93;;;2.10;99.90;;;;;;5117719;28;20636;-55
2022/01/11 07:34:16;;;;;;;22.83;14.37;;;2.20;99.90;;;;;;5117693;28;20251;-55
2022/01/11 07:36:42;;;;;;;21.17;14.13;;;2.30;99.90;;;;;;5117613;27;20186;-55
2022/01/11 07:39:09;;;;;;;20.53;14.37;;;2.30;99.90;;;;;;5117539;27;20168;-55
2022/01/11 07:41:35;;;;;;;24.67;15.60;;;2.40;99.90;;;;;;5117533;28;20260;-55
2022/01/11 07:44:01;;;;;;;21.77;14.17;;;2.40;99.90;;;;;;5117500;28;20185;-53
2022/01/11 07:46:27;;;;;;;25.73;16.67;;;2.40;99.90;;;;;;5115898;28;20236;-55
2022/01/11 07:48:53;;;;;;;21.67;14.80;;;2.40;99.90;;;;;;5116091;28;20584;-55
2022/01/11 07:51:19;;;;;;;19.63;14.47;;;2.40;99.90;;;;;;5117310;28;20544;-55
2022/01/11 07:53:45;;;;;;;24.20;15.37;;;2.30;99.90;;;;;;5117483;28;20231;-54
2022/01/11 07:56:10;;;;;;;20.90;14.97;;;2.30;99.90;;;;;;5116940;28;20203;-55
2022/01/11 07:58:36;;;;;;;24.40;14.60;;;2.30;99.90;;;;;;5117189;28;20212;-55
2022/01/11 08:01:02;;;;;;;23.40;15.23;;;2.40;99.90;;;;;;5116846;28;20580;-52
2022/01/11 08:03:28;;;;;;;24.43;15.20;;;2.50;99.90;;;;;;5117049;28;20174;-55
2022/01/11 08:05:54;;;;;;;25.20;16.53;;;2.60;99.90;;;;;;5116949;28;20261;-54
2022/01/11 08:08:19;;;;;;;27.60;15.23;;;2.60;99.90;;;;;;5117069;28;20554;-55
2022/01/11 08:10:45;;;;;;;25.90;16.07;;;2.50;99.90;;;;;;5116963;28;20180;-56
2022/01/11 08:13:11;;;;;;;27.07;16.53;;;2.50;99.90;;;;;;5116943;28;20197;-57
2022/01/11 08:15:37;;;;;;;23.00;14.70;;;2.50;99.90;;;;;;5116795;28;20181;-53
2022/01/11 08:18:04;;;;;;;24.67;16.13;;;2.60;99.90;;;;;;5116628;28;20249;-54
2022/01/11 08:20:30;;;;;;;27.17;18.23;;;2.60;99.90;;;;;;5116823;28;20181;-56
2022/01/11 08:22:56;;;;;;;25.70;15.93;;;2.60;99.90;;;;;;5116756;28;20170;-55
2022/01/11 08:25:23;;;;;;;26.47;16.30;;;2.70;99.90;;;;;;5116647;28;20237;-55
2022/01/11 08:27:49;;;;;;;24.03;15.97;;;2.70;99.90;;;;;;5116927;28;20196;-54
2022/01/11 08:30:15;;;;;;;25.27;16.50;;;2.70;99.90;;;;;;5117264;28;20613;-53
2022/01/11 08:32:41;;;;;;;24.23;16.60;;;2.80;99.90;;;;;;5116876;28;20237;-55
2022/01/11 08:35:07;;;;;;;31.47;17.27;;;2.80;99.90;;;;;;5116508;28;20222;-56
2022/01/11 08:37:33;;;;;;;23.70;16.27;;;2.80;99.90;;;;;;5116493;28;20179;-56
2022/01/11 08:39:58;;;;;;;27.50;17.00;;;2.80;99.90;;;;;;5116381;28;20180;-56
2022/01/11 08:42:25;;;;;;;27.13;16.77;;;2.90;99.90;;;;;;5116309;28;20194;-56
2022/01/11 08:44:51;;;;;;;25.57;15.87;;;3.00;99.90;;;;;;5116404;28;20176;-55
2022/01/11 08:47:18;;;;;;;24.00;16.37;;;2.90;99.90;;;;;;5116298;28;20230;-55
2022/01/11 08:49:44;;;;;;;25.10;15.43;;;2.90;99.90;;;;;;5116244;28;20177;-55
2022/01/11 08:52:11;;;;;;;27.23;16.70;;;2.90;99.90;;;;;;5116222;28;20264;-55
2022/01/11 08:54:37;;;;;;;25.13;16.17;;;2.90;99.90;;;;;;5116171;28;20180;-54
2022/01/11 08:57:04;;;;;;;28.77;17.83;;;3.00;99.90;;;;;;5116081;28;20173;-53
2022/01/11 08:59:30;;;;;;;24.98;15.38;;;3.20;99.90;;;;;;5116070;28;20180;-55
2022/01/11 09:01:58;;;;;;;27.93;16.87;;;3.20;99.90;;;;;;5116005;28;20307;-56
2022/01/11 09:04:24;;;;;;;28.40;16.70;;;3.30;99.90;;;;;;5115692;28;20169;-55
2022/01/11 09:06:51;;;;;;;28.07;16.30;;;3.20;99.90;;;;;;5115748;28;20211;-56
2022/01/11 09:09:18;;;;;;;27.77;16.43;;;3.10;99.90;;;;;;5115805;28;20184;-53
2022/01/11 09:11:45;;;;;;;25.07;16.77;;;3.20;99.90;;;;;;5115805;28;20169;-55
2022/01/11 09:14:11;;;;;;;25.13;15.47;;;3.20;99.90;;;;;;5115851;28;20182;-57
2022/01/11 09:16:38;;;;;;;27.13;16.30;;;3.20;99.90;;;;;;5115564;28;20614;-55
2022/01/11 09:19:04;;;;;;;29.90;17.65;;;3.20;99.90;;;;;;5115384;28;20173;-55
2022/01/11 09:21:31;;;;;;;28.17;17.77;;;3.20;99.90;;;;;;5115734;28;20176;-55
2022/01/11 09:23:57;;;;;;;26.93;16.30;;;3.30;99.90;;;;;;5115561;28;20176;-55
2022/01/11 09:26:23;;;;;;;25.33;16.37;;;3.40;99.90;;;;;;5115400;28;20208;-54
2022/01/11 09:28:49;;;;;;;28.60;18.30;;;3.40;99.90;;;;;;5114244;28;20678;-55
2022/01/11 09:31:15;;;;;;;25.60;16.47;;;3.40;99.90;;;;;;5114911;28;20168;-53
2022/01/11 09:33:41;;;;;;;26.57;16.23;;;3.40;99.90;;;;;;5115377;28;20169;-55
2022/01/11 09:36:07;;;;;;;26.05;16.98;;;3.40;99.90;;;;;;5115283;28;20191;-55
2022/01/11 09:38:33;;;;;;;29.93;17.10;;;3.40;99.90;;;;;;5115262;28;20172;-54
2022/01/11 09:40:59;;;;;;;29.17;17.53;;;3.40;99.90;;;;;;5115133;28;20180;-53
2022/01/11 09:43:26;;;;;;;29.73;17.20;;;3.40;99.90;;;;;;5114880;28;20180;-54
2022/01/11 09:45:53;;;;;;;28.57;17.30;;;3.30;99.90;;;;;;5115058;28;20321;-54
2022/01/11 09:48:20;;;;;;;27.97;16.20;;;3.40;99.90;;;;;;5115220;28;20637;-55
2022/01/11 09:50:46;;;;;;;27.75;17.40;;;3.40;99.90;;;;;;5115330;28;20235;-52
2022/01/11 09:53:12;;;;;;;27.52;17.25;;;3.40;99.90;;;;;;5113858;28;20576;-53
2022/01/11 09:55:38;;;;;;;27.47;17.00;;;3.40;99.90;;;;;;5114941;28;20176;-55
2022/01/11 09:58:05;;;;;;;26.97;16.23;;;3.40;99.90;;;;;;5114924;28;20238;-55
2022/01/11 10:00:31;;;;;;;26.77;16.67;;;3.30;99.90;;;;;;5114815;27;20256;-55
2022/01/11 10:02:57;;;;;;;27.23;16.58;;;3.30;99.90;;;;;;5114776;28;20184;-55
2022/01/11 10:05:24;;;;;;;27.27;16.15;;;3.40;99.90;;;;;;5113564;28;20211;-55
2022/01/11 10:07:50;;;;;;;23.60;16.67;;;3.40;99.90;;;;;;5114354;28;20535;-54
2022/01/11 10:10:21;;;;;;;26.10;17.13;;;3.40;99.90;;;;;;5114638;28;20634;-56
2022/01/11 10:12:50;;;;;;;30.73;17.23;;;3.40;99.90;;;;;;5114675;28;20185;-57
2022/01/11 10:15:28;;;;;;;24.70;15.83;;;3.50;99.90;;;;;;5115589;28;20259;-55
2022/01/11 10:17:54;;;;;;;27.60;15.73;;;3.50;99.90;;;;;;5115915;28;20192;-56
2022/01/11 10:20:22;;;;;;;25.83;15.75;;;3.50;99.90;;;;;;5114179;28;20183;-55
2022/01/11 10:22:52;;;;;;;27.55;16.17;;;3.60;99.90;;;;;;5114478;28;20177;-54
2022/01/11 10:25:19;;;;;;;25.67;15.82;;;3.60;99.90;;;;;;5114380;28;20172;-54
2022/01/11 10:28:10;;;;;;;26.95;16.48;;;3.70;99.90;;;;;;5114412;28;20510;-55
2022/01/11 10:30:36;;;;;;;22.88;14.45;;;3.80;99.90;;;;;;5114378;28;20168;-54
2022/01/11 10:33:06;;;;;;;25.60;16.23;;;3.70;99.90;;;;;;5113969;28;20176;-56
2022/01/11 10:35:44;;;;;;;25.02;15.88;;;3.80;99.90;;;;;;5114300;28;20169;-55
2022/01/11 10:38:12;;;;;;;24.73;15.73;;;3.90;99.90;;;;;;5114294;28;20160;-55
2022/01/11 10:40:45;;;;;;;27.80;17.33;;;3.90;99.90;;;;;;5114182;28;20649;-55
2022/01/11 10:43:17;;;;;;;27.52;16.33;;;3.90;99.90;;;;;;5114142;28;20176;-57
2022/01/11 10:45:48;;;;;;;24.58;16.40;;;3.90;99.90;;;;;;5113939;28;20195;-55
2022/01/11 10:48:16;;;;;;;26.48;16.48;;;3.90;99.90;;;;;;5114334;28;20213;-55
2022/01/11 10:50:48;;;;;;;23.90;14.40;;;3.90;99.90;;;;;;5112894;28;20192;-55
2022/01/11 10:53:15;;;;;;;24.90;15.63;;;3.90;99.90;;;;;;5114074;28;20521;-55
2022/01/11 10:55:42;;;;;;;20.60;14.43;;;4.00;99.90;;;;;;5114031;28;20181;-56
2022/01/11 10:58:12;;;;;;;24.88;15.68;;;4.00;99.90;;;;;;5113956;28;20168;-55
2022/01/11 11:00:47;;;;;;;24.27;16.10;;;4.10;99.90;;;;;;5114208;28;20614;-55
2022/01/11 11:03:14;;;;;;;27.27;15.95;;;4.10;99.90;;;;;;5113911;28;20228;-56
2022/01/11 11:05:49;;;;;;;23.15;15.50;;;4.10;99.90;;;;;;5113819;28;20549;-55
2022/01/11 11:08:23;;;;;;;24.88;15.30;;;4.10;99.90;;;;;;5113919;28;20575;-55
2022/01/11 11:11:00;;;;;;;24.13;15.23;;;4.10;99.90;;;;;;5114008;28;20192;-56
2022/01/11 11:13:33;;;;;;;23.95;14.95;;;4.20;99.90;;;;;;5113773;28;20176;-55
2022/01/11 11:16:09;;;;;;;24.20;14.65;;;4.30;99.90;;;;;;5113558;28;20164;-56
2022/01/11 11:18:39;;;;;;;22.17;14.52;;;4.30;99.90;;;;;;5113587;28;20164;-56
2022/01/11 11:21:31;;;;;;;24.38;16.00;;;4.30;99.90;;;;;;5113952;28;20181;-55
2022/01/11 11:23:58;;;;;;;23.80;16.00;;;4.30;99.90;;;;;;5113734;28;20192;-56
2022/01/11 11:26:26;;;;;;;21.30;14.98;;;4.20;99.90;;;;;;5113748;28;20204;-57
2022/01/11 11:28:53;;;;;;;26.80;15.75;;;4.20;99.90;;;;;;5113687;28;20176;-55
2022/01/11 11:31:19;;;;;;;22.48;14.43;;;4.20;99.90;;;;;;5113648;28;20645;-55
2022/01/11 11:33:45;;;;;;;24.05;15.20;;;4.20;99.90;;;;;;5113609;28;20176;-55
2022/01/11 11:36:14;;;;;;;23.40;14.68;;;4.20;99.90;;;;;;5113870;28;20631;-54
2022/01/11 11:39:13;;;;;;;25.45;15.32;;;4.10;99.90;;;;;;5113726;28;20176;-55
2022/01/11 11:41:42;;;;;;;23.30;14.43;;;4.10;99.90;;;;;;5113585;28;20621;-55
2022/01/11 11:44:19;;;;;;;23.23;14.40;;;4.10;99.90;;;;;;5112228;28;20524;-55
2022/01/11 11:46:53;;;;;;;22.67;14.55;;;4.10;99.90;;;;;;5113535;28;20220;-55
2022/01/11 11:49:55;;;;;;;26.08;15.60;;;4.10;99.90;;;;;;5113447;28;20172;-55
2022/01/11 11:52:48;;;;;;;23.77;15.23;;;4.10;99.90;;;;;;5113463;28;20175;-55
2022/01/11 11:55:23;;;;;;;24.30;15.32;;;4.00;99.90;;;;;;5116107;28;20245;-55
2022/01/11 11:57:52;;;;;;;24.55;15.10;;;4.00;99.90;;;;;;5121086;28;20176;-56
2022/01/11 12:00:22;;;;;;;24.90;14.77;;;4.00;99.90;;;;;;5120511;28;20636;-55
2022/01/11 12:02:57;;;;;;;23.25;14.60;;;4.10;99.90;;;;;;5119467;28;20255;-56
2022/01/11 12:05:40;;;;;;;48.63;25.47;;;4.10;99.90;;;;;;5116808;28;20609;-56
2022/01/11 12:08:36;;;;;;;29.63;19.02;;;4.20;99.90;;;;;;5117079;28;20188;-55
2022/01/11 12:11:15;;;;;;;28.33;16.80;;;4.10;99.90;;;;;;5117048;28;20491;-55
2022/01/11 12:13:43;;;;;;;26.35;18.77;;;4.10;99.90;;;;;;5117003;28;20512;-55
2022/01/11 12:16:40;;;;;;;22.70;15.30;;;4.20;99.90;;;;;;5116674;28;20215;-54
2022/01/11 12:19:44;;;;;;;23.70;14.75;;;4.10;99.90;;;;;;5103963;28;20187;-55
2022/01/11 12:22:10;;;;;;;24.80;15.50;;;4.20;99.90;;;;;;5116866;28;20225;-56
2022/01/11 12:24:44;;;;;;;23.42;14.93;;;4.30;99.90;;;;;;5116690;28;20625;-55
2022/01/11 12:27:11;;;;;;;25.30;14.67;;;4.50;99.90;;;;;;5116703;28;20278;-56
2022/01/11 12:29:50;;;;;;;21.65;14.48;;;4.60;99.90;;;;;;5116617;28;20246;-55
2022/01/11 12:32:18;;;;;;;24.98;15.23;;;4.70;99.90;;;;;;5116772;28;20224;-55
2022/01/11 12:34:50;;;;;;;21.25;14.25;;;4.90;99.90;;;;;;5116475;28;20177;-55
2022/01/11 12:37:21;;;;;;;21.42;14.18;;;4.90;99.90;;;;;;5116471;28;20499;-56
2022/01/11 12:40:09;;;;;;;23.13;13.68;;;5.10;99.90;;;;;;5116445;28;20181;-57
2022/01/11 12:42:36;;;;;;;21.75;13.55;;;5.20;99.90;;;;;;5116534;28;20522;-55